createdAt,value
2022-11-23T00:01:22.150Z,78.21
2022-11-23T00:03:51.016Z,78.76
2022-11-23T00:06:18.404Z,78.37
2022-11-23T00:08:45.055Z,78.41
2022-11-23T00:11:11.595Z,78.33
2022-11-23T00:13:41.786Z,79.04
2022-11-23T00:16:10.210Z,78.29
2022-11-23T00:18:36.568Z,78.58
2022-11-23T00:21:09.985Z,79.31
2022-11-23T00:23:37.138Z,78.77
2022-11-23T00:26:04.653Z,78.72
2022-11-23T00:28:31.373Z,78.95
2022-11-23T00:30:58.050Z,79.70
2022-11-23T00:33:24.452Z,79.84
2022-11-23T00:36:24.679Z,80.46
2022-11-23T00:38:51.315Z,79.73
2022-11-23T00:41:20.172Z,79.68
2022-11-23T00:43:46.555Z,79.91
2022-11-23T00:46:15.705Z,80.39
2022-11-23T00:48:47.264Z,80.37
2022-11-23T00:51:15.920Z,80.48
2022-11-23T00:53:42.672Z,80.20
2022-11-23T00:56:10.142Z,80.29
2022-11-23T00:58:38.792Z,79.60
2022-11-23T01:01:13.515Z,80.41
2022-11-23T01:03:43.420Z,80.28
2022-11-23T01:06:12.369Z,79.82
2022-11-23T01:08:39.429Z,80.42
2022-11-23T01:11:09.094Z,79.76
2022-11-23T01:13:37.502Z,80.42
2022-11-23T01:16:03.972Z,80.30
2022-11-23T01:18:30.342Z,80.64
2022-11-23T01:20:56.774Z,80.32
2022-11-23T01:23:23.159Z,80.14
2022-11-23T01:25:54.316Z,80.69
2022-11-23T01:28:23.254Z,80.48
2022-11-23T01:30:49.589Z,80.99
2022-11-23T01:33:16.004Z,81.37
2022-11-23T01:35:42.333Z,81.15
2022-11-23T01:38:10.593Z,81.09
2022-11-23T01:40:43.445Z,81.91
2022-11-23T01:43:16.342Z,81.51
2022-11-23T01:45:53.052Z,82.04
2022-11-23T01:48:34.695Z,82.31
2022-11-23T01:51:04.198Z,80.94
2022-11-23T01:53:33.062Z,81.34
2022-11-23T01:56:01.911Z,81.65
2022-11-23T01:58:33.146Z,81.79
2022-11-23T02:00:59.814Z,82.31
2022-11-23T02:03:28.365Z,82.02
2022-11-23T02:06:00.835Z,82.70
2022-11-23T02:08:28.595Z,82.34
2022-11-23T02:10:56.141Z,82.17
2022-11-23T02:13:24.461Z,82.52
2022-11-23T02:15:51.985Z,82.04
2022-11-23T02:18:24.903Z,82.58
2022-11-23T02:20:52.642Z,82.79
2022-11-23T02:23:45.874Z,82.32
2022-11-23T02:26:19.130Z,82.85
2022-11-23T02:28:50.774Z,82.52
2022-11-23T02:31:17.116Z,82.80
2022-11-23T02:33:43.470Z,82.32
2022-11-23T02:36:40.975Z,82.95
2022-11-23T02:39:13.646Z,82.80
2022-11-23T02:41:43.714Z,82.77
2022-11-23T02:44:23.911Z,82.62
2022-11-23T02:46:51.726Z,82.45
2022-11-23T02:49:18.024Z,82.63
2022-11-23T02:51:44.442Z,82.29
2022-11-23T02:54:11.204Z,82.58
2022-11-23T02:56:37.532Z,82.03
2022-11-23T02:59:04.033Z,82.73
2022-11-23T03:01:30.514Z,82.22
2022-11-23T03:03:56.927Z,82.66
2022-11-23T03:06:23.292Z,81.76
2022-11-23T03:08:49.665Z,81.83
2022-11-23T03:11:17.053Z,81.96
2022-11-23T03:13:43.739Z,81.77
2022-11-23T03:16:10.543Z,81.72
2022-11-23T03:18:36.876Z,81.66
2022-11-23T03:21:04.737Z,82.55
2022-11-23T03:23:31.698Z,82.07
2022-11-23T03:25:58.703Z,83.30
2022-11-23T03:28:25.350Z,82.45
2022-11-23T03:30:51.754Z,83.12
2022-11-23T03:33:18.748Z,82.56
2022-11-23T03:35:45.137Z,83.28
2022-11-23T03:38:11.661Z,83.08
2022-11-23T03:40:38.206Z,84.37
2022-11-23T03:43:04.863Z,83.22
2022-11-23T03:45:31.781Z,82.97
2022-11-23T03:47:58.194Z,83.19
2022-11-23T03:50:24.571Z,83.29
2022-11-23T03:52:51.187Z,84.23
2022-11-23T03:55:17.647Z,84.22
2022-11-23T03:57:43.992Z,83.59
2022-11-23T04:00:10.898Z,83.69
2022-11-23T04:02:37.249Z,83.57
2022-11-23T04:05:03.694Z,82.92
2022-11-23T04:07:30.089Z,83.13
2022-11-23T04:09:56.584Z,83.31
2022-11-23T04:12:22.927Z,83.42
2022-11-23T04:14:49.277Z,83.59
2022-11-23T04:17:15.615Z,83.00
2022-11-23T04:19:42.006Z,83.09
2022-11-23T04:22:08.459Z,83.03
2022-11-23T04:24:34.844Z,82.96
2022-11-23T04:27:01.237Z,82.92
2022-11-23T04:29:27.589Z,82.99
2022-11-23T04:31:54.121Z,82.71
2022-11-23T04:34:20.517Z,82.72
2022-11-23T04:36:46.887Z,82.96
2022-11-23T04:39:13.332Z,82.00
2022-11-23T04:41:39.908Z,82.91
2022-11-23T04:44:06.393Z,82.28
2022-11-23T04:46:32.958Z,82.25
2022-11-23T04:48:59.277Z,82.36
2022-11-23T04:51:25.633Z,82.70
2022-11-23T04:53:52.246Z,82.94
2022-11-23T04:56:18.630Z,82.71
2022-11-23T04:58:44.945Z,83.01
2022-11-23T05:01:11.581Z,82.91
2022-11-23T05:03:37.987Z,82.72
2022-11-23T05:06:05.148Z,82.46
2022-11-23T05:08:31.664Z,83.03
2022-11-23T05:10:58.049Z,82.67
2022-11-23T05:13:24.538Z,82.42
2022-11-23T05:15:50.961Z,82.56
2022-11-23T05:18:17.390Z,82.31
2022-11-23T05:20:43.750Z,82.40
2022-11-23T05:23:10.673Z,82.63
2022-11-23T05:25:37.093Z,82.25
2022-11-23T05:28:16.928Z,82.30
2022-11-23T05:30:50.473Z,82.41
2022-11-23T05:33:16.875Z,82.00
2022-11-23T05:35:43.438Z,82.42
2022-11-23T05:38:09.798Z,81.90
2022-11-23T05:40:36.297Z,82.46
2022-11-23T05:43:02.978Z,82.88
2022-11-23T05:45:29.401Z,82.16
2022-11-23T05:47:57.848Z,82.20
2022-11-23T05:50:25.903Z,82.69
2022-11-23T05:52:52.413Z,82.46
2022-11-23T05:55:18.864Z,82.56
2022-11-23T05:57:45.228Z,82.24
2022-11-23T06:00:12.393Z,82.60
2022-11-23T06:02:41.292Z,83.52
2022-11-23T06:05:09.112Z,82.72
2022-11-23T06:07:36.148Z,82.93
2022-11-23T06:10:03.346Z,82.58
2022-11-23T06:12:30.339Z,82.51
2022-11-23T06:14:56.690Z,82.31
2022-11-23T06:17:23.204Z,82.68
2022-11-23T06:19:50.115Z,82.54
2022-11-23T06:22:16.890Z,83.01
2022-11-23T06:24:43.297Z,82.45
2022-11-23T06:27:12.964Z,82.68
2022-11-23T06:29:43.335Z,82.17
2022-11-23T06:32:09.810Z,82.70
2022-11-23T06:34:36.172Z,82.93
2022-11-23T06:37:02.513Z,82.66
2022-11-23T06:39:28.861Z,81.96
2022-11-23T06:42:06.544Z,82.21
2022-11-23T06:44:41.653Z,81.84
2022-11-23T06:47:10.532Z,81.53
2022-11-23T06:49:40.324Z,81.29
2022-11-23T06:52:06.862Z,81.35
2022-11-23T06:54:33.209Z,81.88
2022-11-23T06:56:59.609Z,81.26
2022-11-23T06:59:26.049Z,81.21
2022-11-23T07:01:52.457Z,80.86
2022-11-23T07:04:18.826Z,81.31
2022-11-23T07:06:45.178Z,81.62
2022-11-23T07:09:11.878Z,80.90
2022-11-23T07:11:38.207Z,81.43
2022-11-23T07:14:04.675Z,80.71
2022-11-23T07:16:31.112Z,81.32
2022-11-23T07:18:58.273Z,80.46
2022-11-23T07:21:24.799Z,81.20
2022-11-23T07:23:51.165Z,80.84
2022-11-23T07:26:17.482Z,81.03
2022-11-23T07:28:43.953Z,80.62
2022-11-23T07:31:10.351Z,81.20
2022-11-23T07:33:36.686Z,80.84
2022-11-23T07:36:04.202Z,81.02
2022-11-23T07:38:30.748Z,81.14
2022-11-23T07:40:59.027Z,80.05
2022-11-23T07:43:25.354Z,80.85
2022-11-23T07:45:51.796Z,80.41
2022-11-23T07:48:18.253Z,80.39
2022-11-23T07:50:44.586Z,80.17
2022-11-23T07:53:11.016Z,80.00
2022-11-23T07:55:37.553Z,81.08
2022-11-23T07:58:05.666Z,80.82
2022-11-23T08:00:32.177Z,80.04
2022-11-23T08:03:26.171Z,80.65
2022-11-23T08:05:45.452Z,79.37
2022-11-23T08:08:12.081Z,79.78
2022-11-23T08:10:44.154Z,79.77
2022-11-23T08:13:12.886Z,80.12
2022-11-23T08:15:39.268Z,80.26
2022-11-23T08:18:05.808Z,79.74
2022-11-23T08:20:33.430Z,79.84
2022-11-23T08:22:59.755Z,79.33
2022-11-23T08:25:27.967Z,80.00
2022-11-23T08:27:59.062Z,79.28
2022-11-23T08:30:26.825Z,79.29
2022-11-23T08:32:53.446Z,78.92
2022-11-23T08:35:20.240Z,79.58
2022-11-23T08:37:46.646Z,79.41
2022-11-23T08:40:13.938Z,78.76
2022-11-23T08:42:40.574Z,79.11
2022-11-23T08:45:07.728Z,78.81
2022-11-23T08:47:34.402Z,78.95
2022-11-23T08:50:00.871Z,79.11
2022-11-23T08:52:27.521Z,78.05
2022-11-23T08:54:53.881Z,78.53
2022-11-23T08:57:20.542Z,78.34
2022-11-23T08:59:46.878Z,77.96
2022-11-23T09:02:13.883Z,78.08
2022-11-23T09:04:41.456Z,78.39
2022-11-23T09:07:08.286Z,77.47
2022-11-23T09:09:34.799Z,77.38
2022-11-23T09:12:01.355Z,77.49
2022-11-23T09:14:27.857Z,78.11
2022-11-23T09:16:54.943Z,77.81
2022-11-23T09:19:22.011Z,78.07
2022-11-23T09:21:48.841Z,77.55
2022-11-23T09:24:15.339Z,77.48
2022-11-23T09:26:41.810Z,76.78
2022-11-23T09:29:08.469Z,77.15
2022-11-23T09:31:36.015Z,76.73
2022-11-23T09:34:02.890Z,75.75
2022-11-23T09:36:30.044Z,75.37
2022-11-23T09:38:57.567Z,74.03
2022-11-23T09:41:26.991Z,74.97
2022-11-23T09:44:11.215Z,74.23
2022-11-23T09:46:54.287Z,73.55
2022-11-23T09:49:22.462Z,74.73
2022-11-23T09:51:55.545Z,72.60
2022-11-23T09:54:32.689Z,71.17
2022-11-23T09:57:01.849Z,71.87
2022-11-23T09:59:40.786Z,70.63
2022-11-23T10:02:24.023Z,72.20
2022-11-23T10:04:53.548Z,71.62
2022-11-23T10:07:37.046Z,70.04
2022-11-23T10:10:17.548Z,72.28
2022-11-23T10:12:59.379Z,69.96
2022-11-23T10:15:37.504Z,69.68
2022-11-23T10:18:15.877Z,70.56
2022-11-23T10:21:13.160Z,69.17
2022-11-23T10:23:54.745Z,68.93
2022-11-23T10:26:28.021Z,70.02
2022-11-23T10:28:56.267Z,70.79
2022-11-23T10:31:24.112Z,70.53
2022-11-23T10:34:12.501Z,68.31
2022-11-23T10:36:40.981Z,68.87
2022-11-23T10:39:23.855Z,70.68
2022-11-23T10:41:54.406Z,70.93
2022-11-23T10:44:34.519Z,70.48
2022-11-23T10:47:01.137Z,70.73
2022-11-23T10:49:34.196Z,70.68
2022-11-23T10:52:03.779Z,71.03
2022-11-23T10:54:48.711Z,70.96
2022-11-23T10:57:28.308Z,69.37
2022-11-23T11:00:05.532Z,69.17
2022-11-23T11:02:42.910Z,69.71
2022-11-23T11:06:07.387Z,68.59
2022-11-23T11:08:31.500Z,69.74
2022-11-23T11:11:01.694Z,67.97
2022-11-23T11:13:37.950Z,68.06
2022-11-23T11:16:16.831Z,69.23
2022-11-23T11:18:43.311Z,68.33
2022-11-23T11:21:28.586Z,67.28
2022-11-23T11:24:01.671Z,66.16
2022-11-23T11:26:30.587Z,64.48
2022-11-23T11:29:01.388Z,66.55
2022-11-23T11:31:34.223Z,64.39
2022-11-23T11:34:38.218Z,63.54
2022-11-23T11:37:11.042Z,61.51
2022-11-23T11:39:57.646Z,61.96
2022-11-23T11:42:34.831Z,62.61
2022-11-23T11:45:05.365Z,62.81
2022-11-23T11:47:39.734Z,62.81
2022-11-23T11:50:28.461Z,63.56
2022-11-23T11:53:11.130Z,65.07
2022-11-23T11:55:57.119Z,62.53
2022-11-23T11:58:27.349Z,64.14
2022-11-23T12:01:04.461Z,64.39
2022-11-23T12:03:42.971Z,62.84
2022-11-23T12:06:26.830Z,62.05
2022-11-23T12:09:16.566Z,61.39
2022-11-23T12:11:43.070Z,64.28
2022-11-23T12:14:13.355Z,63.58
2022-11-23T12:17:25.331Z,61.52
2022-11-23T12:20:02.559Z,63.06
2022-11-23T12:22:52.467Z,61.30
2022-11-23T12:25:34.601Z,59.93
2022-11-23T12:28:09.216Z,62.62
2022-11-23T12:31:01.418Z,60.69
2022-11-23T12:33:39.667Z,61.12
2022-11-23T12:36:34.498Z,61.20
2022-11-23T12:39:17.886Z,63.22
2022-11-23T12:42:00.412Z,62.19
2022-11-23T12:44:39.776Z,61.94
2022-11-23T12:47:14.159Z,62.10
2022-11-23T12:50:01.881Z,62.92
2022-11-23T12:52:49.154Z,62.67
2022-11-23T12:55:29.113Z,60.98
2022-11-23T12:58:16.884Z,61.43
2022-11-23T13:00:54.201Z,61.54
2022-11-23T13:03:59.486Z,61.36
2022-11-23T13:07:27.310Z,61.36
2022-11-23T13:10:14.809Z,62.08
2022-11-23T13:13:04.106Z,62.68
2022-11-23T13:16:04.651Z,62.65
2022-11-23T13:19:04.883Z,63.06
2022-11-23T13:21:36.371Z,62.93
2022-11-23T13:24:03.250Z,62.73
2022-11-23T13:26:31.491Z,63.11
2022-11-23T13:28:59.112Z,63.65
2022-11-23T13:31:31.452Z,62.13
2022-11-23T13:34:00.587Z,62.32
2022-11-23T13:36:56.253Z,62.13
2022-11-23T13:39:44.078Z,62.64
2022-11-23T13:42:11.314Z,63.34
2022-11-23T13:44:37.902Z,63.28
2022-11-23T13:47:10.275Z,63.22
2022-11-23T13:49:41.823Z,63.19
2022-11-23T13:52:23.257Z,63.02
2022-11-23T13:55:07.397Z,63.37
2022-11-23T13:57:40.178Z,63.89
2022-11-23T14:00:44.153Z,63.64
2022-11-23T14:03:49.501Z,62.99
2022-11-23T14:06:40.742Z,63.15
2022-11-23T14:09:24.201Z,64.02
2022-11-23T14:12:05.486Z,63.75
2022-11-23T14:14:53.848Z,63.60
2022-11-23T14:17:38.695Z,64.43
2022-11-23T14:20:18.959Z,63.54
2022-11-23T14:23:03.494Z,63.89
2022-11-23T14:26:11.903Z,63.13
2022-11-23T14:28:56.921Z,64.02
2022-11-23T14:31:39.349Z,63.87
2022-11-23T14:34:49.485Z,64.28
2022-11-23T14:37:26.751Z,65.57
2022-11-23T14:40:03.241Z,65.20
2022-11-23T14:42:31.281Z,65.49
2022-11-23T14:45:04.652Z,65.57
2022-11-23T14:47:32.052Z,66.18
2022-11-23T14:49:58.452Z,66.78
2022-11-23T14:52:33.029Z,67.51
2022-11-23T14:55:02.815Z,67.54
2022-11-23T14:57:40.805Z,68.20
2022-11-23T15:00:23.850Z,68.15
2022-11-23T15:02:51.107Z,67.99
2022-11-23T15:05:20.841Z,68.34
2022-11-23T15:07:55.864Z,69.51
2022-11-23T15:10:41.865Z,69.58
2022-11-23T15:13:51.252Z,70.18
2022-11-23T15:16:20.173Z,69.43
2022-11-23T15:18:47.569Z,70.17
2022-11-23T15:21:27.672Z,70.58
2022-11-23T15:23:57.656Z,70.55
2022-11-23T15:26:48.936Z,71.81
2022-11-23T15:29:35.860Z,71.49
2022-11-23T15:32:28.543Z,70.96
2022-11-23T15:34:53.657Z,72.22
2022-11-23T15:37:21.522Z,72.17
2022-11-23T15:39:49.113Z,73.65
2022-11-23T15:42:16.977Z,75.18
2022-11-23T15:44:48.904Z,74.00
2022-11-23T15:47:26.194Z,74.69
2022-11-23T15:49:59.995Z,75.98
2022-11-23T15:52:30.049Z,75.31
2022-11-23T15:54:56.628Z,74.25
2022-11-23T15:57:26.442Z,74.81
2022-11-23T15:59:58.267Z,75.92
2022-11-23T16:02:28.734Z,74.71
2022-11-23T16:05:17.142Z,77.66
2022-11-23T16:07:54.638Z,76.59
2022-11-23T16:10:32.891Z,77.98
2022-11-23T16:13:01.369Z,78.33
2022-11-23T16:15:44.178Z,79.79
2022-11-23T16:18:13.743Z,78.20
2022-11-23T16:20:45.205Z,78.90
2022-11-23T16:23:18.723Z,78.22
2022-11-23T16:25:45.127Z,77.06
2022-11-23T16:28:27.253Z,78.14
2022-11-23T16:30:53.785Z,78.50
2022-11-23T16:33:20.611Z,79.31
2022-11-23T16:35:47.987Z,77.86
2022-11-23T16:38:14.468Z,78.51
2022-11-23T16:40:42.420Z,78.78
2022-11-23T16:43:12.676Z,78.50
2022-11-23T16:45:41.024Z,79.82
2022-11-23T16:48:25.894Z,80.30
2022-11-23T16:50:57.176Z,80.36
2022-11-23T16:53:26.897Z,79.41
2022-11-23T16:55:55.059Z,79.93
2022-11-23T16:58:22.176Z,79.58
2022-11-23T17:00:49.541Z,79.80
2022-11-23T17:03:17.566Z,80.00
2022-11-23T17:05:44.570Z,79.97
2022-11-23T17:08:11.354Z,79.31
2022-11-23T17:10:39.295Z,79.48
2022-11-23T17:13:11.231Z,79.39
2022-11-23T17:15:37.992Z,79.78
2022-11-23T17:18:05.033Z,79.26
2022-11-23T17:20:31.414Z,78.91
2022-11-23T17:23:00.984Z,79.17
2022-11-23T17:25:27.449Z,79.73
2022-11-23T17:27:54.019Z,79.23
2022-11-23T17:30:22.700Z,80.47
2022-11-23T17:32:49.956Z,80.00
2022-11-23T17:35:16.990Z,79.88
2022-11-23T17:37:43.812Z,79.83
2022-11-23T17:40:15.036Z,81.04
2022-11-23T17:42:41.421Z,81.18
2022-11-23T17:45:08.188Z,80.78
2022-11-23T17:47:34.916Z,79.81
2022-11-23T17:50:01.407Z,81.55
2022-11-23T17:52:27.792Z,80.07
2022-11-23T17:54:54.210Z,79.83
2022-11-23T17:57:25.722Z,80.31
2022-11-23T17:59:53.294Z,80.16
2022-11-23T18:02:20.729Z,80.53
2022-11-23T18:04:47.781Z,80.88
2022-11-23T18:07:15.953Z,82.53
2022-11-23T18:09:43.169Z,82.00
2022-11-23T18:12:09.880Z,82.04
2022-11-23T18:14:37.316Z,81.79
2022-11-23T18:17:03.702Z,81.22
2022-11-23T18:19:30.372Z,80.90
2022-11-23T18:21:57.313Z,81.61
2022-11-23T18:24:23.823Z,80.71
2022-11-23T18:26:50.191Z,80.59
2022-11-23T18:29:17.408Z,81.18
2022-11-23T18:31:44.023Z,81.29
2022-11-23T18:34:10.598Z,81.27
2022-11-23T18:36:37.113Z,80.86
2022-11-23T18:39:03.888Z,80.31
2022-11-23T18:41:30.333Z,81.27
2022-11-23T18:43:56.813Z,80.20
2022-11-23T18:46:23.403Z,80.97
2022-11-23T18:48:50.974Z,80.83
2022-11-23T18:51:18.332Z,80.54
2022-11-23T18:53:47.381Z,80.48
2022-11-23T18:56:13.852Z,83.06
2022-11-23T18:58:42.686Z,83.99
2022-11-23T19:01:12.742Z,82.82
2022-11-23T19:03:41.331Z,81.99
2022-11-23T19:06:11.949Z,81.47
2022-11-23T19:08:43.058Z,82.34
2022-11-23T19:11:17.572Z,81.91
2022-11-23T19:13:46.161Z,81.99
2022-11-23T19:16:15.940Z,82.99
2022-11-23T19:18:42.574Z,83.52
2022-11-23T19:21:17.578Z,85.77
2022-11-23T19:23:47.831Z,85.53
2022-11-23T19:26:14.326Z,84.99
2022-11-23T19:28:44.636Z,86.59
2022-11-23T19:31:16.858Z,86.60
2022-11-23T19:33:45.820Z,86.95
2022-11-23T19:36:18.065Z,87.65
2022-11-23T19:38:44.820Z,87.65
2022-11-23T19:41:11.604Z,87.32
2022-11-23T19:43:38.308Z,88.50
2022-11-23T19:46:06.597Z,89.03
2022-11-23T19:48:34.566Z,88.25
2022-11-23T19:51:06.700Z,87.93
2022-11-23T19:53:35.554Z,87.70
2022-11-23T19:56:15.980Z,87.98
2022-11-23T19:58:43.674Z,87.19
2022-11-23T20:01:15.502Z,87.51
2022-11-23T20:03:47.811Z,86.71
2022-11-23T20:06:25.281Z,86.21
2022-11-23T20:09:03.730Z,86.71
2022-11-23T20:11:31.673Z,85.83
2022-11-23T20:13:58.729Z,85.17
2022-11-23T20:16:27.158Z,86.74
2022-11-23T20:18:59.243Z,85.28
2022-11-23T20:21:27.888Z,84.55
2022-11-23T20:24:06.722Z,84.59
2022-11-23T20:26:36.051Z,84.19
2022-11-23T20:29:03.874Z,84.13
2022-11-23T20:31:31.907Z,84.06
2022-11-23T20:33:58.893Z,83.68
2022-11-23T20:36:31.002Z,84.95
2022-11-23T20:39:00.538Z,84.16
2022-11-23T20:41:29.805Z,85.18
2022-11-23T20:44:01.373Z,85.48
2022-11-23T20:46:59.891Z,85.23
2022-11-23T20:49:17.105Z,84.74
2022-11-23T20:51:43.480Z,86.16
2022-11-23T20:54:09.912Z,85.44
2022-11-23T20:56:38.652Z,85.22
2022-11-23T20:59:05.012Z,84.49
2022-11-23T21:01:31.578Z,84.41
2022-11-23T21:03:59.459Z,83.91
2022-11-23T21:06:26.782Z,84.79
2022-11-23T21:08:53.794Z,83.91
2022-11-23T21:11:38.561Z,83.88
2022-11-23T21:14:11.204Z,84.35
2022-11-23T21:16:52.773Z,83.92
2022-11-23T21:19:21.019Z,84.08
2022-11-23T21:21:47.753Z,84.19
2022-11-23T21:24:14.191Z,84.49
2022-11-23T21:26:40.793Z,84.62
2022-11-23T21:29:11.285Z,83.91
2022-11-23T21:31:39.461Z,84.40
2022-11-23T21:34:06.257Z,84.39
2022-11-23T21:36:37.671Z,84.07
2022-11-23T21:39:07.196Z,84.36
2022-11-23T21:41:33.868Z,83.92
2022-11-23T21:44:00.408Z,83.79
2022-11-23T21:46:27.082Z,84.69
2022-11-23T21:48:55.491Z,84.14
2022-11-23T21:51:26.163Z,84.10
2022-11-23T21:53:54.288Z,84.10
2022-11-23T21:56:20.974Z,84.41
2022-11-23T21:58:47.536Z,83.82
2022-11-23T22:01:18.041Z,84.30
2022-11-23T22:03:52.937Z,85.19
2022-11-23T22:06:20.894Z,84.77
2022-11-23T22:08:52.831Z,84.98
2022-11-23T22:11:24.097Z,85.29
2022-11-23T22:13:55.569Z,84.87
2022-11-23T22:16:30.374Z,85.15
2022-11-23T22:18:57.797Z,84.25
2022-11-23T22:21:26.317Z,84.25
2022-11-23T22:23:53.383Z,84.40
2022-11-23T22:26:21.258Z,83.56
2022-11-23T22:28:50.192Z,84.47
2022-11-23T22:31:19.213Z,84.68
2022-11-23T22:33:46.553Z,84.23
2022-11-23T22:36:15.376Z,83.66
2022-11-23T22:38:41.947Z,84.50
2022-11-23T22:41:11.680Z,84.57
2022-11-23T22:43:38.729Z,85.37
2022-11-23T22:46:11.303Z,85.12
2022-11-23T22:48:39.492Z,85.35
2022-11-23T22:51:07.103Z,86.15
2022-11-23T22:53:33.945Z,85.03
2022-11-23T22:56:06.820Z,84.76
2022-11-23T22:58:33.177Z,85.59
2022-11-23T23:01:08.204Z,85.45
2022-11-23T23:03:35.096Z,84.98
2022-11-23T23:06:02.126Z,84.93
2022-11-23T23:08:28.892Z,84.34
2022-11-23T23:10:55.428Z,84.44
2022-11-23T23:13:22.471Z,84.31
2022-11-23T23:15:49.138Z,84.27
2022-11-23T23:18:16.460Z,83.25
2022-11-23T23:20:43.034Z,83.14
2022-11-23T23:23:09.419Z,83.65
2022-11-23T23:25:35.752Z,83.35
2022-11-23T23:28:02.265Z,82.89
2022-11-23T23:30:28.654Z,83.55
2022-11-23T23:32:57.181Z,82.84
2022-11-23T23:35:23.685Z,82.52
2022-11-23T23:37:51.503Z,83.55
2022-11-23T23:40:18.040Z,83.36
2022-11-23T23:42:44.574Z,82.42
2022-11-23T23:45:11.143Z,83.00
2022-11-23T23:47:37.893Z,83.22
2022-11-23T23:50:04.888Z,82.18
2022-11-23T23:52:31.321Z,82.50
2022-11-23T23:54:57.792Z,82.70
2022-11-23T23:57:24.242Z,82.89
2022-11-23T23:59:50.826Z,82.38
